Time;durP1;ratioP1;P1;durP2;ratioP2;P2;SDS_P1;SDS_P2;PMS_P1;PMS_P2;Temp;Humidity;BMP_temperature;BMP_pressure;BME280_temperature;BME280_humidity;BME280_pressure;Samples;Min_cycle;Max_cycle;Signal;HPM_P1;HPM_P2
2023/03/18 00:00:00;;;;;;;11.60;6.97;;;;;;;9.57;84.53;100017.47;5022249;28;20635;-73
2023/03/18 00:02:27;;;;;;;11.80;7.30;;;;;;;9.46;85.23;100017.38;5030776;28;20243;-74
2023/03/18 00:04:53;;;;;;;12.80;7.60;;;;;;;9.38;86.09;100021.69;5026292;28;20200;-73
2023/03/18 00:07:20;;;;;;;11.03;7.10;;;;;;;9.32;86.94;100022.50;5029962;28;20210;-78
2023/03/18 00:09:46;;;;;;;10.47;7.13;;;;;;;9.34;87.67;100023.41;5030050;28;20292;-74
2023/03/18 00:12:12;;;;;;;11.10;6.60;;;;;;;9.30;88.33;100039.22;5026716;28;20290;-76
2023/03/18 00:14:39;;;;;;;11.63;8.10;;;;;;;9.25;89.77;100044.44;5018266;28;20623;-76
2023/03/18 00:17:06;;;;;;;11.70;7.30;;;;;;;9.19;90.49;100043.44;5023979;28;20195;-74
2023/03/18 00:19:33;;;;;;;13.20;8.47;;;;;;;9.15;90.72;100031.94;5023129;28;20201;-74
2023/03/18 00:21:59;;;;;;;13.80;8.43;;;;;;;9.13;91.34;100030.16;5027626;28;20222;-74
2023/03/18 00:24:27;;;;;;;12.53;8.13;;;;;;;9.07;92.13;100023.94;5024704;28;20232;-74
2023/03/18 00:26:53;;;;;;;10.83;8.07;;;;;;;9.07;93.03;100033.59;5025770;28;20198;-74
2023/03/18 00:29:20;;;;;;;12.83;8.03;;;;;;;8.98;93.87;100050.22;5029220;28;20202;-75
2023/03/18 00:31:46;;;;;;;11.27;8.00;;;;;;;8.93;95.31;100049.28;5028553;28;20580;-74
2023/03/18 00:34:13;;;;;;;12.93;7.90;;;;;;;8.90;97.49;100041.31;5024849;28;20234;-73
2023/03/18 00:36:39;;;;;;;13.53;8.33;;;;;;;8.81;98.43;100045.56;5028632;28;20200;-75
2023/03/18 00:39:06;;;;;;;14.80;8.70;;;;;;;8.76;98.75;100056.91;5025165;28;20198;-73
2023/03/18 00:41:35;;;;;;;14.80;8.80;;;;;;;8.74;98.84;100052.47;5023986;28;20261;-73
2023/03/18 00:44:02;;;;;;;11.03;8.50;;;;;;;8.71;99.12;100057.72;5025594;28;20660;-73
2023/03/18 00:46:34;;;;;;;14.77;8.83;;;;;;;8.71;99.68;100050.69;5026147;28;20240;-73
2023/03/18 00:49:04;;;;;;;13.80;9.30;;;;;;;8.77;98.88;100045.50;5021254;28;20255;-73
2023/03/18 00:51:36;;;;;;;13.93;8.93;;;;;;;8.70;98.75;100048.91;5024737;28;20225;-73
2023/03/18 00:54:06;;;;;;;17.53;9.50;;;;;;;8.69;99.08;100043.59;5017944;28;20237;-76
2023/03/18 00:56:34;;;;;;;13.57;9.57;;;;;;;8.82;98.48;100050.88;5015955;28;20200;-74
2023/03/18 00:59:01;;;;;;;16.17;10.00;;;;;;;8.79;98.89;100049.03;5028665;28;20248;-74
2023/03/18 01:01:28;;;;;;;13.30;8.93;;;;;;;8.79;99.01;100054.31;5022601;28;20299;-75
2023/03/18 01:03:55;;;;;;;12.63;8.90;;;;;;;8.73;99.10;100062.16;5021428;28;20552;-73
2023/03/18 01:06:27;;;;;;;12.40;8.23;;;;;;;8.69;99.66;100060.34;5021704;28;20585;-74
2023/03/18 01:08:54;;;;;;;14.70;8.60;;;;;;;8.69;100.00;100057.69;5019771;28;20200;-73
2023/03/18 01:11:22;;;;;;;15.00;9.60;;;;;;;8.66;100.00;100051.47;5027668;28;20234;-73
2023/03/18 01:13:48;;;;;;;13.03;8.43;;;;;;;8.64;100.00;100051.47;5024280;28;20432;-73
2023/03/18 01:16:15;;;;;;;12.40;9.00;;;;;;;8.65;100.00;100058.50;5023584;28;20232;-75
2023/03/18 01:18:42;;;;;;;14.70;9.23;;;;;;;8.61;100.00;100046.13;5023087;28;20275;-76
2023/03/18 01:21:10;;;;;;;14.40;9.40;;;;;;;8.61;100.00;100048.78;5025261;28;20221;-73
2023/03/18 01:23:37;;;;;;;16.80;10.33;;;;;;;8.61;100.00;100048.78;5023119;28;20376;-75
2023/03/18 01:26:05;;;;;;;19.07;10.27;;;;;;;8.63;100.00;100044.41;5028960;28;20222;-74
2023/03/18 01:28:32;;;;;;;16.87;10.93;;;;;;;8.80;100.00;100042.00;5024969;28;20621;-75
2023/03/18 01:30:59;;;;;;;17.63;10.20;;;;;;;8.79;100.00;100035.84;5025955;28;20252;-73
2023/03/18 01:33:27;;;;;;;14.53;9.53;;;;;;;8.72;100.00;100047.19;5020438;28;20224;-74
2023/03/18 01:35:55;;;;;;;13.73;9.97;;;;;;;8.70;100.00;100061.22;5021483;28;20674;-75
2023/03/18 01:38:23;;;;;;;15.50;9.60;;;;;;;8.67;100.00;100061.19;5023088;28;20279;-73
2023/03/18 01:40:53;;;;;;;18.20;10.70;;;;;;;8.67;100.00;100056.78;5025375;28;20575;-74
2023/03/18 01:43:23;;;;;;;16.27;9.73;;;;;;;8.64;100.00;100040.00;5021145;28;20624;-73
2023/03/18 01:45:52;;;;;;;14.70;10.57;;;;;;;8.65;100.00;100031.22;5027046;28;20204;-74
2023/03/18 01:48:22;;;;;;;16.87;10.97;;;;;;;8.65;100.00;100037.41;5027761;28;20227;-74
2023/03/18 01:50:54;;;;;;;17.70;11.03;;;;;;;8.59;100.00;100033.78;5022723;28;20294;-73
2023/03/18 01:53:22;;;;;;;17.80;10.77;;;;;;;8.60;100.00;100035.56;5023512;28;20200;-73
2023/03/18 01:55:51;;;;;;;16.60;11.47;;;;;;;8.56;100.00;100029.34;5019626;28;20236;-73
2023/03/18 01:58:23;;;;;;;18.13;12.00;;;;;;;8.58;100.00;100022.34;5023423;28;20609;-74
2023/03/18 02:01:08;;;;;;;16.03;11.03;;;;;;;8.59;100.00;100023.22;5023998;28;20866;-74
2023/03/18 02:03:35;;;;;;;17.03;11.23;;;;;;;8.51;100.00;100024.88;5026990;28;20283;-74
2023/03/18 02:06:02;;;;;;;16.00;10.63;;;;;;;8.44;100.00;100027.41;5018893;28;20255;-73
2023/03/18 02:08:29;;;;;;;16.43;10.40;;;;;;;8.42;100.00;100028.25;5021811;28;20231;-74
2023/03/18 02:10:55;;;;;;;15.27;11.30;;;;;;;8.38;100.00;100031.66;5021819;28;20563;-73
2023/03/18 02:13:23;;;;;;;15.57;11.30;;;;;;;8.34;100.00;100041.28;5027583;28;20203;-73
2023/03/18 02:15:55;;;;;;;14.70;10.47;;;;;;;8.35;100.00;100036.91;5027755;28;20257;-73
2023/03/18 02:18:35;;;;;;;14.97;10.77;;;;;;;8.32;100.00;100042.97;5020665;28;20314;-73
2023/03/18 02:21:31;;;;;;;17.83;11.43;;;;;;;8.31;100.00;100033.28;5024955;28;20214;-73
2023/03/18 02:24:27;;;;;;;18.47;11.37;;;;;;;8.39;100.00;100030.81;5018059;28;20197;-73
2023/03/18 02:27:00;;;;;;;17.97;11.63;;;;;;;8.40;100.00;100038.75;5022394;28;20624;-73
2023/03/18 02:29:30;;;;;;;18.90;11.57;;;;;;;8.51;100.00;100033.66;5025318;28;20396;-73
2023/03/18 02:32:00;;;;;;;15.87;10.97;;;;;;;8.43;100.00;100035.31;5020856;28;20267;-73
2023/03/18 02:34:27;;;;;;;16.10;10.70;;;;;;;8.35;100.00;100031.63;5027411;28;20625;-73
2023/03/18 02:36:54;;;;;;;16.20;10.57;;;;;;;8.31;100.00;100035.03;5025815;28;20216;-73
2023/03/18 02:39:21;;;;;;;17.30;11.60;;;;;;;8.29;100.00;100042.94;5028595;28;20227;-73
2023/03/18 02:41:47;;;;;;;16.70;11.53;;;;;;;8.27;100.00;100034.09;5029523;28;20588;-73
2023/03/18 02:44:13;;;;;;;17.93;11.63;;;;;;;8.43;100.00;100044.09;5028566;28;20208;-74
2023/03/18 02:46:46;;;;;;;17.13;11.67;;;;;;;8.31;100.00;100040.31;5024198;28;20675;-74
2023/03/18 02:49:13;;;;;;;16.00;11.67;;;;;;;8.28;100.00;100041.16;5027304;28;20256;-75
2023/03/18 02:51:40;;;;;;;18.17;12.33;;;;;;;8.35;100.00;100040.44;5027116;28;20223;-73
2023/03/18 02:54:13;;;;;;;16.67;11.20;;;;;;;8.32;100.00;100050.91;5020445;28;20212;-73
2023/03/18 02:56:41;;;;;;;15.93;11.13;;;;;;;8.28;100.00;100054.34;5023741;28;20210;-73
2023/03/18 02:59:09;;;;;;;17.17;11.50;;;;;;;8.25;100.00;100079.78;5026626;28;20232;-73
2023/03/18 03:01:37;;;;;;;17.13;11.47;;;;;;;8.16;100.00;100086.69;5025305;28;20247;-75
2023/03/18 03:04:05;;;;;;;18.13;11.70;;;;;;;8.16;100.00;100081.41;5023618;28;20275;-76
2023/03/18 03:06:32;;;;;;;13.93;10.00;;;;;;;8.09;100.00;100076.91;5018792;28;20676;-73
2023/03/18 03:08:59;;;;;;;18.03;12.13;;;;;;;8.21;100.00;100091.16;5018277;28;20235;-74
2023/03/18 03:11:27;;;;;;;21.33;12.30;;;;;;;8.25;100.00;100085.06;5028624;28;20307;-73
2023/03/18 03:13:53;;;;;;;20.37;12.03;;;;;;;8.25;100.00;100072.75;5030455;28;20196;-73
2023/03/18 03:16:19;;;;;;;18.47;12.33;;;;;;;8.21;100.00;100064.78;5026915;28;20247;-74
2023/03/18 03:18:46;;;;;;;19.20;11.97;;;;;;;8.14;100.00;100061.16;5030442;28;20227;-74
2023/03/18 03:21:14;;;;;;;19.87;12.70;;;;;;;8.18;100.00;100068.25;5025578;28;20279;-73
2023/03/18 03:23:40;;;;;;;17.10;12.17;;;;;;;8.38;100.00;100082.69;5029171;28;20204;-74
2023/03/18 03:26:06;;;;;;;18.90;11.70;;;;;;;8.24;100.00;100075.38;5024283;28;20277;-73
2023/03/18 03:28:33;;;;;;;19.43;12.07;;;;;;;8.13;100.00;100088.38;5023356;28;20202;-74
2023/03/18 03:31:00;;;;;;;16.43;10.93;;;;;;;8.03;100.00;100087.34;5025795;28;20219;-74
2023/03/18 03:33:27;;;;;;;16.60;11.43;;;;;;;7.98;100.00;100070.50;5030949;28;20200;-73
2023/03/18 03:35:54;;;;;;;20.73;12.13;;;;;;;7.95;100.00;100066.94;5024302;28;20288;-74
2023/03/18 03:38:21;;;;;;;19.83;12.07;;;;;;;7.96;100.00;100072.22;5030953;28;20205;-74
2023/03/18 03:40:48;;;;;;;17.90;11.83;;;;;;;7.97;100.00;100063.47;5023573;28;20567;-73
2023/03/18 03:43:15;;;;;;;17.07;10.63;;;;;;;8.02;100.00;100071.47;5028756;28;20628;-73
2023/03/18 03:45:42;;;;;;;17.20;11.70;;;;;;;8.01;100.00;100074.97;5030179;28;20234;-73
2023/03/18 03:48:10;;;;;;;18.73;11.30;;;;;;;8.05;100.00;100066.25;5027936;28;20202;-73
2023/03/18 03:50:38;;;;;;;20.30;12.53;;;;;;;8.14;100.00;100072.59;5027761;28;20285;-74
2023/03/18 03:53:05;;;;;;;17.80;11.77;;;;;;;8.03;100.00;100065.34;5031005;28;20310;-73
2023/03/18 03:55:32;;;;;;;18.13;11.67;;;;;;;7.98;100.00;100078.41;5023533;28;20193;-74
2023/03/18 03:57:59;;;;;;;14.53;10.03;;;;;;;7.86;100.00;100089.63;5024565;28;20291;-73
2023/03/18 04:00:26;;;;;;;18.70;11.57;;;;;;;7.82;100.00;100084.28;5028910;28;20234;-74
2023/03/18 04:02:53;;;;;;;18.10;11.63;;;;;;;7.83;100.00;100083.41;5027269;28;20199;-74
2023/03/18 04:05:22;;;;;;;16.17;11.00;;;;;;;7.85;100.00;100077.31;5025140;28;20253;-74
2023/03/18 04:07:50;;;;;;;18.60;11.53;;;;;;;7.92;100.00;100073.03;5028896;28;20193;-73
2023/03/18 04:10:19;;;;;;;17.43;11.23;;;;;;;7.97;100.00;100081.03;5026919;28;20227;-74
2023/03/18 04:12:46;;;;;;;15.27;10.77;;;;;;;8.01;100.00;100081.13;5028345;28;20269;-73
2023/03/18 04:15:16;;;;;;;15.30;10.60;;;;;;;8.03;100.00;100086.44;5027591;28;20209;-73
2023/03/18 04:17:43;;;;;;;16.57;10.77;;;;;;;7.96;100.00;100085.41;5024960;28;20206;-73
2023/03/18 04:20:10;;;;;;;17.33;10.30;;;;;;;7.83;100.00;100086.94;5025734;28;20229;-74
2023/03/18 04:22:37;;;;;;;14.70;9.80;;;;;;;7.71;100.00;100086.72;5027601;28;20687;-75
2023/03/18 04:25:04;;;;;;;19.23;11.17;;;;;;;7.59;100.00;100080.28;5028465;28;20615;-73
2023/03/18 04:27:31;;;;;;;17.33;11.33;;;;;;;7.69;100.00;100077.00;5030629;28;20204;-73
2023/03/18 04:29:57;;;;;;;20.37;12.03;;;;;;;7.82;100.00;100089.53;5028034;28;20196;-73
2023/03/18 04:32:26;;;;;;;15.57;10.47;;;;;;;7.85;100.00;100086.97;5027642;28;20226;-75
2023/03/18 04:34:52;;;;;;;17.10;11.43;;;;;;;7.86;100.00;100088.75;5029099;28;20216;-74
2023/03/18 04:37:19;;;;;;;18.23;11.50;;;;;;;7.88;100.00;100097.56;5026010;28;20643;-74
2023/03/18 04:39:47;;;;;;;17.03;11.23;;;;;;;7.85;100.00;100089.59;5026850;28;20253;-74
2023/03/18 04:42:13;;;;;;;21.93;12.87;;;;;;;7.89;100.00;100099.34;5026930;28;20212;-73
2023/03/18 04:44:39;;;;;;;22.83;13.17;;;;;;;7.91;100.00;100097.63;5028649;28;20257;-73
2023/03/18 04:47:06;;;;;;;18.33;11.93;;;;;;;7.88;100.00;100094.03;5028261;28;20209;-74
2023/03/18 04:49:33;;;;;;;18.03;11.90;;;;;;;7.90;100.00;100098.47;5020398;28;20254;-74
2023/03/18 04:52:00;;;;;;;23.33;12.67;;;;;;;7.73;100.00;100097.28;5025640;28;20277;-75
2023/03/18 04:54:27;;;;;;;18.10;12.13;;;;;;;7.54;100.00;100102.16;5025667;28;20196;-73
2023/03/18 04:56:54;;;;;;;20.00;12.70;;;;;;;7.39;100.00;100095.69;5030716;28;20199;-74
2023/03/18 04:59:20;;;;;;;21.07;13.37;;;;;;;7.21;100.00;100098.81;5028850;28;20207;-73
2023/03/18 05:01:46;;;;;;;22.47;13.03;;;;;;;7.30;100.00;100111.31;5025973;28;20298;-74
2023/03/18 05:04:13;;;;;;;23.40;12.10;;;;;;;7.30;100.00;100101.66;5027859;28;20199;-73
2023/03/18 05:06:40;;;;;;;21.47;12.77;;;;;;;7.26;100.00;100105.09;5027478;28;20682;-73
2023/03/18 05:09:07;;;;;;;22.43;12.60;;;;;;;7.31;100.00;100111.34;5023671;28;20199;-74
2023/03/18 05:11:34;;;;;;;23.80;13.90;;;;;;;7.34;100.00;100107.88;5025724;28;20648;-73
2023/03/18 05:14:00;;;;;;;20.77;11.83;;;;;;;7.41;100.00;100105.41;5025835;28;20314;-73
2023/03/18 05:16:28;;;;;;;17.17;12.37;;;;;;;7.51;100.00;100104.72;5028544;28;20200;-74
2023/03/18 05:18:55;;;;;;;19.53;12.90;;;;;;;7.61;100.00;100102.31;5025038;28;20199;-75
2023/03/18 05:21:21;;;;;;;19.60;12.67;;;;;;;7.63;100.00;100090.06;5023704;28;20286;-74
2023/03/18 05:23:48;;;;;;;21.60;12.47;;;;;;;7.71;100.00;100096.38;5026326;28;20250;-73
2023/03/18 05:26:15;;;;;;;19.93;12.93;;;;;;;7.63;100.00;100092.69;5026744;28;20264;-73
2023/03/18 05:28:42;;;;;;;24.60;13.47;;;;;;;7.72;100.00;100087.59;5013965;28;20202;-73
2023/03/18 05:31:08;;;;;;;22.67;12.33;;;;;;;7.63;100.00;100098.84;5021804;28;20220;-73
2023/03/18 05:33:35;;;;;;;23.40;13.17;;;;;;;7.56;100.00;100099.56;5024496;28;20302;-73
2023/03/18 05:36:01;;;;;;;21.47;12.53;;;;;;;7.54;100.00;100098.63;5025864;28;20206;-74
2023/03/18 05:38:28;;;;;;;20.53;12.20;;;;;;;7.45;100.00;100101.97;5020631;28;20203;-73
2023/03/18 05:40:54;;;;;;;19.40;11.93;;;;;;;7.46;100.00;100106.38;5027880;28;20222;-74
2023/03/18 05:43:22;;;;;;;22.93;12.60;;;;;;;7.45;100.00;100108.97;5028083;28;20252;-74
2023/03/18 05:45:49;;;;;;;19.57;12.00;;;;;;;7.34;100.00;100114.03;5028475;28;20199;-73
2023/03/18 05:48:16;;;;;;;19.10;11.07;;;;;;;7.29;100.00;100114.78;5026780;28;20210;-74
2023/03/18 05:50:43;;;;;;;17.43;11.90;;;;;;;7.21;100.00;100118.16;5026358;28;20229;-73
2023/03/18 05:53:10;;;;;;;19.90;11.00;;;;;;;7.08;100.00;100113.44;5026073;28;20225;-74
2023/03/18 05:55:38;;;;;;;17.50;10.70;;;;;;;6.98;100.00;100107.94;5024218;28;20286;-73
2023/03/18 05:58:06;;;;;;;19.17;11.57;;;;;;;6.90;100.00;100107.75;5024042;28;20681;-74
2023/03/18 06:00:32;;;;;;;18.37;11.90;;;;;;;6.86;100.00;100101.53;5025513;28;20245;-73
2023/03/18 06:03:00;;;;;;;18.67;12.53;;;;;;;6.90;100.00;100106.03;5026761;28;20192;-73
2023/03/18 06:05:28;;;;;;;22.73;12.50;;;;;;;6.91;100.00;100110.44;5025290;28;20207;-74
2023/03/18 06:07:58;;;;;;;19.17;12.13;;;;;;;6.82;100.00;100112.84;5021822;28;20293;-73
2023/03/18 06:10:25;;;;;;;20.53;12.60;;;;;;;6.77;100.00;100118.81;5026537;28;20258;-73
2023/03/18 06:12:53;;;;;;;20.27;12.27;;;;;;;6.75;100.00;100115.28;5027645;28;20253;-73
2023/03/18 06:15:20;;;;;;;19.97;12.13;;;;;;;6.68;100.00;100110.72;5024000;28;20561;-73
2023/03/18 06:17:47;;;;;;;22.17;11.27;;;;;;;6.64;100.00;100119.41;5025392;28;20217;-73
2023/03/18 06:20:14;;;;;;;17.80;11.63;;;;;;;6.62;100.00;100121.09;5025569;28;20253;-73
2023/03/18 06:22:42;;;;;;;18.40;12.00;;;;;;;6.62;100.00;100119.34;5025862;28;20191;-73
2023/03/18 06:25:09;;;;;;;18.87;11.57;;;;;;;6.68;100.00;100119.50;5024365;28;20252;-74
2023/03/18 06:27:36;;;;;;;18.50;11.63;;;;;;;6.75;100.00;100121.44;5027691;28;20227;-73
2023/03/18 06:30:03;;;;;;;21.87;12.70;;;;;;;6.90;100.00;100121.81;5027665;28;20205;-74
2023/03/18 06:32:30;;;;;;;23.83;11.87;;;;;;;7.06;100.00;100116.91;5020624;28;20218;-73
2023/03/18 06:34:56;;;;;;;23.20;13.20;;;;;;;7.32;100.00;100122.75;5023243;28;20663;-74
2023/03/18 06:37:23;;;;;;;22.47;13.23;;;;;;;7.39;100.00;100119.41;5026793;28;20198;-74
2023/03/18 06:39:49;;;;;;;22.10;12.47;;;;;;;7.67;100.00;100128.78;5026839;28;20223;-73
2023/03/18 06:42:16;;;;;;;21.40;13.13;;;;;;;7.99;100.00;100124.13;5024894;28;20211;-73
2023/03/18 06:44:49;;;;;;;19.60;12.97;;;;;;;8.08;100.00;100137.53;5031590;28;20206;-73
2023/03/18 06:47:17;;;;;;;22.37;13.47;;;;;;;8.27;100.00;100138.75;5025993;28;20192;-74
2023/03/18 06:49:45;;;;;;;21.67;13.90;;;;;;;8.58;100.00;100141.13;5027698;28;20250;-74
2023/03/18 06:52:13;;;;;;;27.03;15.73;;;;;;;8.53;100.00;100137.50;5026691;28;20218;-73
2023/03/18 06:54:40;;;;;;;23.90;14.83;;;;;;;8.78;100.00;100130.88;5025878;28;20624;-73
2023/03/18 06:57:07;;;;;;;28.87;16.60;;;;;;;9.20;100.00;100140.31;5030172;28;20213;-74
2023/03/18 06:59:35;;;;;;;24.60;15.90;;;;;;;9.26;100.00;100145.72;5026670;28;20204;-73
2023/03/18 07:02:02;;;;;;;22.70;15.70;;;;;;;9.38;100.00;100141.50;5028566;28;20212;-76
2023/03/18 07:04:29;;;;;;;26.53;16.30;;;;;;;9.77;100.00;100140.25;5028259;28;20215;-73
2023/03/18 07:06:56;;;;;;;24.00;15.57;;;;;;;10.05;100.00;100146.78;5028913;28;20578;-74
2023/03/18 07:09:23;;;;;;;25.23;15.57;;;;;;;10.15;100.00;100138.06;5024279;28;20304;-73
2023/03/18 07:11:49;;;;;;;22.63;14.53;;;;;;;10.43;99.66;100141.03;5024990;28;20691;-74
2023/03/18 07:14:17;;;;;;;20.77;13.83;;;;;;;10.59;96.85;100145.59;5028024;28;20212;-74
2023/03/18 07:16:43;;;;;;;22.70;13.53;;;;;;;10.34;97.07;100150.63;5030048;28;20505;-74
2023/03/18 07:19:10;;;;;;;21.20;13.27;;;;;;;10.00;97.73;100157.28;5030087;28;20891;-74
2023/03/18 07:21:36;;;;;;;19.47;12.17;;;;;;;9.78;99.53;100157.91;5024333;28;20278;-73
2023/03/18 07:24:03;;;;;;;20.57;12.33;;;;;;;9.97;99.06;100170.47;5029300;28;20282;-75
2023/03/18 07:26:30;;;;;;;18.10;11.73;;;;;;;9.96;99.09;100167.81;5023940;28;20673;-75
2023/03/18 07:28:57;;;;;;;18.97;11.83;;;;;;;9.85;99.23;100167.69;5026781;28;20207;-73
2023/03/18 07:31:24;;;;;;;20.20;11.70;;;;;;;10.05;99.22;100166.19;5030692;28;20221;-75
2023/03/18 07:33:50;;;;;;;17.80;10.30;;;;;;;10.19;99.78;100158.38;5027645;28;20415;-73
2023/03/18 07:36:17;;;;;;;21.83;11.83;;;;;;;10.34;99.33;100165.63;5025678;28;20222;-74
2023/03/18 07:38:43;;;;;;;18.03;11.30;;;;;;;10.42;98.83;100179.88;5027198;28;20287;-70
2023/03/18 07:41:10;;;;;;;16.00;11.00;;;;;;;10.27;98.35;100175.28;5025725;28;20216;-70
2023/03/18 07:43:37;;;;;;;19.90;14.15;;;;;;;10.34;99.00;100178.88;5030420;28;20945;-79
2023/03/18 07:46:04;;;;;;;18.63;11.30;;;;;;;10.34;98.96;100190.34;5028653;28;20228;-72
2023/03/18 07:48:32;;;;;;;19.50;12.33;;;;;;;10.36;98.79;100188.59;5029187;28;20210;-70
2023/03/18 07:51:00;;;;;;;18.90;10.97;;;;;;;10.27;97.66;100188.50;5026879;28;20700;-71
2023/03/18 07:53:27;;;;;;;15.80;10.03;;;;;;;10.31;98.18;100181.47;5030250;28;20303;-74
2023/03/18 07:55:54;;;;;;;16.17;9.63;;;;;;;10.33;97.79;100179.75;5028244;28;20628;-70
2023/03/18 07:58:20;;;;;;;12.97;9.33;;;;;;;10.33;97.52;100182.38;5023121;28;20730;-71
2023/03/18 08:00:48;;;;;;;17.23;8.90;;;;;;;10.38;96.20;100178.03;5026462;28;20228;-70
2023/03/18 08:03:14;;;;;;;15.53;8.97;;;;;;;10.52;96.54;100179.09;5025212;28;20197;-70
2023/03/18 08:05:40;;;;;;;13.07;8.03;;;;;;;10.68;95.79;100173.03;5025734;28;20228;-70
2023/03/18 08:08:07;;;;;;;15.80;9.20;;;;;;;10.83;94.73;100169.66;5026831;28;20236;-70
2023/03/18 08:10:34;;;;;;;16.37;9.00;;;;;;;11.04;94.74;100168.94;5027364;28;20213;-70
2023/03/18 08:13:00;;;;;;;14.27;8.60;;;;;;;11.23;93.49;100173.53;5028135;28;20685;-70
2023/03/18 08:15:27;;;;;;;18.20;10.40;;;;;;;11.35;90.14;100178.00;5022462;28;20513;-69
2023/03/18 08:17:53;;;;;;;18.53;10.10;;;;;;;11.44;89.94;100178.06;5025847;28;20235;-71
2023/03/18 08:20:20;;;;;;;13.80;9.27;;;;;;;11.49;90.03;100168.38;5025585;28;20226;-70
2023/03/18 08:22:47;;;;;;;14.50;8.73;;;;;;;11.66;90.40;100181.75;5026444;28;20278;-70
2023/03/18 08:25:13;;;;;;;17.87;9.10;;;;;;;11.77;88.11;100176.50;5023271;28;20304;-72
2023/03/18 08:27:40;;;;;;;14.50;7.70;;;;;;;11.83;85.66;100174.78;5026714;28;20470;-70
2023/03/18 08:30:07;;;;;;;11.87;7.70;;;;;;;11.91;84.05;100178.34;5024594;28;20239;-71
2023/03/18 08:32:33;;;;;;;12.40;7.53;;;;;;;12.11;83.70;100183.78;5025729;28;20297;-72
2023/03/18 08:35:01;;;;;;;9.90;7.03;;;;;;;12.29;83.03;100190.91;5027574;28;20780;-70
2023/03/18 08:37:28;;;;;;;10.63;7.40;;;;;;;12.49;81.26;100194.50;5027139;28;20192;-69
2023/03/18 08:39:54;;;;;;;13.40;7.17;;;;;;;12.66;79.16;100191.00;5028847;28;20249;-73
2023/03/18 08:42:20;;;;;;;12.80;8.00;;;;;;;12.76;77.95;100187.44;5025726;28;20191;-70
2023/03/18 08:44:47;;;;;;;12.97;7.30;;;;;;;12.84;76.87;100193.69;5027220;28;20651;-71
2023/03/18 08:47:14;;;;;;;8.90;6.37;;;;;;;12.97;75.91;100191.91;5027363;28;20227;-70
2023/03/18 08:49:40;;;;;;;13.07;6.47;;;;;;;13.14;74.85;100193.69;5025723;28;20201;-70
2023/03/18 08:52:06;;;;;;;9.60;6.10;;;;;;;13.23;74.68;100181.31;5025639;28;20237;-69
2023/03/18 08:54:33;;;;;;;9.07;5.90;;;;;;;13.41;73.66;100179.50;5029040;28;20230;-70
2023/03/18 08:56:59;;;;;;;6.80;5.83;;;;;;;13.58;70.63;100182.13;5028921;28;20277;-70
2023/03/18 08:59:26;;;;;;;9.33;6.07;;;;;;;13.78;71.09;100180.31;5030428;28;20283;-70
2023/03/18 09:01:52;;;;;;;9.43;6.37;;;;;;;13.95;70.34;100176.72;5024344;28;20227;-72
2023/03/18 09:04:19;;;;;;;8.07;5.90;;;;;;;14.00;69.85;100178.47;5026417;28;20196;-72
2023/03/18 09:06:47;;;;;;;9.20;5.93;;;;;;;14.04;69.61;100174.91;5028233;28;20199;-77
2023/03/18 09:09:14;;;;;;;11.83;6.73;;;;;;;14.13;69.74;100184.63;5026515;28;20668;-81
2023/03/18 09:11:40;;;;;;;11.87;6.50;;;;;;;14.22;69.68;100186.38;5026030;28;20281;-76
2023/03/18 09:14:07;;;;;;;10.50;6.50;;;;;;;14.27;69.67;100189.88;5029772;28;20239;-75
2023/03/18 09:16:34;;;;;;;10.27;6.63;;;;;;;14.26;69.47;100186.34;5021638;28;20366;-78
2023/03/18 09:19:01;;;;;;;13.27;7.60;;;;;;;14.10;70.54;100182.00;5027846;28;20191;-82
2023/03/18 09:21:27;;;;;;;10.40;6.50;;;;;;;14.06;71.16;100185.56;5027479;28;20215;-77
2023/03/18 09:23:53;;;;;;;12.47;7.47;;;;;;;14.13;71.77;100189.06;5028561;28;20257;-80
2023/03/18 09:26:20;;;;;;;11.63;7.17;;;;;;;14.33;70.32;100188.06;5026711;28;20223;-81
2023/03/18 09:28:47;;;;;;;11.50;7.50;;;;;;;14.30;70.28;100188.09;5026985;28;20200;-80
2023/03/18 09:31:14;;;;;;;11.47;7.17;;;;;;;14.56;68.53;100176.44;5026686;28;20258;-78
2023/03/18 09:33:41;;;;;;;11.00;6.60;;;;;;;14.73;67.31;100177.22;5029772;28;20571;-79
2023/03/18 09:36:08;;;;;;;12.77;6.27;;;;;;;14.90;66.69;100171.78;5027840;28;20242;-79
2023/03/18 09:38:35;;;;;;;10.43;6.37;;;;;;;15.12;67.51;100168.03;5026110;28;20235;-76
2023/03/18 09:41:13;;;;;;;11.10;5.70;;;;;;;15.37;63.32;100174.03;5026903;28;20219;-74
2023/03/18 09:43:48;;;;;;;9.03;5.53;;;;;;;15.55;63.01;100173.84;5024100;28;20207;-73
2023/03/18 09:46:35;;;;;;;8.43;5.03;;;;;;;15.76;62.68;100179.91;5024701;28;20203;-74
2023/03/18 09:49:31;;;;;;;9.87;4.73;;;;;;;15.89;59.82;100170.84;5022931;28;20211;-70
2023/03/18 09:52:17;;;;;;;7.30;4.00;;;;;;;15.97;59.03;100169.84;5025137;28;20646;-70
2023/03/18 09:54:52;;;;;;;6.87;4.07;;;;;;;16.13;58.24;100167.88;5023866;28;20215;-70
2023/03/18 09:57:35;;;;;;;6.93;4.30;;;;;;;16.38;57.91;100170.19;5027107;28;20207;-71
2023/03/18 10:00:19;;;;;;;5.17;3.70;;;;;;;16.38;56.96;100172.88;5023072;28;20223;-70
2023/03/18 10:03:02;;;;;;;6.47;3.70;;;;;;;16.58;58.34;100174.38;5015902;28;20219;-70
2023/03/18 10:05:42;;;;;;;5.93;3.87;;;;;;;16.68;56.65;100172.47;5022502;28;20668;-73
2023/03/18 10:08:19;;;;;;;6.80;3.57;;;;;;;16.64;56.92;100173.41;5018758;28;20262;-70
2023/03/18 10:10:46;;;;;;;6.00;2.97;;;;;;;16.67;56.08;100175.19;5018585;28;20273;-73
2023/03/18 10:13:24;;;;;;;5.33;3.43;;;;;;;16.83;55.14;100179.41;5027950;28;20247;-69
2023/03/18 10:15:56;;;;;;;7.27;3.43;;;;;;;17.04;54.53;100172.81;5029588;28;20659;-70
2023/03/18 10:18:30;;;;;;;7.07;3.03;;;;;;;17.00;52.86;100171.97;5018358;28;20199;-70
2023/03/18 10:21:01;;;;;;;4.90;3.10;;;;;;;17.09;53.54;100173.63;5023914;28;20257;-73
2023/03/18 10:23:53;;;;;;;4.67;2.67;;;;;;;17.37;53.11;100172.25;5021624;28;20243;-70
2023/03/18 10:26:29;;;;;;;5.00;2.90;;;;;;;17.73;52.58;100175.19;5029398;28;20253;-71
2023/03/18 10:29:07;;;;;;;6.53;3.10;;;;;;;17.90;53.39;100183.78;5023740;28;20226;-69
2023/03/18 10:32:01;;;;;;;5.40;3.10;;;;;;;18.30;51.41;100183.84;5018200;28;20227;-69
2023/03/18 10:34:36;;;;;;;6.53;3.20;;;;;;;18.54;49.81;100168.13;5028232;28;20211;-69
2023/03/18 10:37:15;;;;;;;5.53;2.80;;;;;;;18.81;48.11;100167.50;5015021;28;20203;-69
2023/03/18 10:39:44;;;;;;;4.27;2.63;;;;;;;18.90;48.12;100166.44;5025791;28;20222;-72
2023/03/18 10:42:40;;;;;;;5.57;2.90;;;;;;;18.76;46.79;100167.63;5029293;28;20223;-69
2023/03/18 10:45:26;;;;;;;5.50;2.90;;;;;;;18.46;48.28;100155.78;5019854;28;20553;-69
2023/03/18 10:48:03;;;;;;;5.40;2.97;;;;;;;17.73;49.71;100178.75;5028496;28;20777;-69
2023/03/18 10:50:38;;;;;;;7.37;2.87;;;;;;;17.64;50.22;100176.22;5030440;28;20246;-69
2023/03/18 10:53:24;;;;;;;7.50;3.10;;;;;;;17.51;50.98;100171.97;5029991;28;20251;-69
2023/03/18 10:56:05;;;;;;;5.00;2.93;;;;;;;17.47;50.90;100173.84;5023206;28;20690;-70
2023/03/18 10:58:32;;;;;;;3.97;2.60;;;;;;;17.64;50.84;100175.34;5022290;28;20191;-70
2023/03/18 11:00:59;;;;;;;6.17;3.20;;;;;;;17.58;50.36;100162.91;5029164;28;20695;-70
2023/03/18 11:03:47;;;;;;;6.43;3.10;;;;;;;17.90;50.17;100167.69;5030297;28;20188;-69
2023/03/18 11:06:24;;;;;;;8.13;2.90;;;;;;;18.02;50.38;100169.28;5029045;28;20211;-70
2023/03/18 11:09:00;;;;;;;5.90;2.87;;;;;;;18.07;49.24;100162.00;5030050;28;20325;-70
2023/03/18 11:11:32;;;;;;;4.17;3.10;;;;;;;18.09;49.46;100162.88;5018126;28;20215;-72
2023/03/18 11:14:00;;;;;;;7.53;3.03;;;;;;;18.03;48.55;100163.88;5025840;28;20211;-68
2023/03/18 11:16:38;;;;;;;6.20;3.33;;;;;;;17.98;49.50;100165.75;5022866;28;20200;-73
2023/03/18 11:19:20;;;;;;;6.43;3.13;;;;;;;18.19;48.18;100172.47;5028455;28;20207;-69
2023/03/18 11:21:47;;;;;;;3.87;2.37;;;;;;;18.50;47.23;100161.09;5020897;28;20219;-69